sensor_id;sensor_type;location;lat;lon;timestamp;P1;durP1;ratioP1;P2;durP2;ratioP2
81229;SDS011;70701;44.452;18.652;2023-09-19T00:01:34;24.25;;;17.40;;
81229;SDS011;70701;44.452;18.652;2023-09-19T00:04:01;23.27;;;18.58;;
81229;SDS011;70701;44.452;18.652;2023-09-19T00:06:28;22.65;;;16.95;;
81229;SDS011;70701;44.452;18.652;2023-09-19T00:08:56;21.33;;;16.77;;
81229;SDS011;70701;44.452;18.652;2023-09-19T00:11:24;22.95;;;17.55;;
81229;SDS011;70701;44.452;18.652;2023-09-19T00:13:51;25.35;;;18.73;;
81229;SDS011;70701;44.452;18.652;2023-09-19T00:16:17;22.33;;;17.17;;
81229;SDS011;70701;44.452;18.652;2023-09-19T00:18:44;23.38;;;17.30;;
81229;SDS011;70701;44.452;18.652;2023-09-19T00:21:10;20.02;;;17.88;;
81229;SDS011;70701;44.452;18.652;2023-09-19T00:23:36;24.70;;;18.02;;
81229;SDS011;70701;44.452;18.652;2023-09-19T00:26:01;23.77;;;19.25;;
81229;SDS011;70701;44.452;18.652;2023-09-19T00:28:27;26.23;;;21.13;;
81229;SDS011;70701;44.452;18.652;2023-09-19T00:30:56;28.05;;;22.27;;
81229;SDS011;70701;44.452;18.652;2023-09-19T00:33:25;22.80;;;18.15;;
81229;SDS011;70701;44.452;18.652;2023-09-19T00:35:51;23.80;;;18.00;;
81229;SDS011;70701;44.452;18.652;2023-09-19T00:38:18;25.05;;;18.02;;
81229;SDS011;70701;44.452;18.652;2023-09-19T00:40:47;22.35;;;17.90;;
81229;SDS011;70701;44.452;18.652;2023-09-19T00:43:12;25.00;;;17.83;;
81229;SDS011;70701;44.452;18.652;2023-09-19T00:45:39;26.20;;;20.08;;
81229;SDS011;70701;44.452;18.652;2023-09-19T00:48:09;25.25;;;20.67;;
81229;SDS011;70701;44.452;18.652;2023-09-19T00:50:35;29.42;;;20.85;;
81229;SDS011;70701;44.452;18.652;2023-09-19T00:53:01;22.33;;;19.15;;
81229;SDS011;70701;44.452;18.652;2023-09-19T00:55:38;26.00;;;20.08;;
81229;SDS011;70701;44.452;18.652;2023-09-19T00:58:05;24.08;;;20.40;;
81229;SDS011;70701;44.452;18.652;2023-09-19T01:00:32;26.88;;;19.98;;
81229;SDS011;70701;44.452;18.652;2023-09-19T01:02:59;24.75;;;20.88;;
81229;SDS011;70701;44.452;18.652;2023-09-19T01:05:29;26.98;;;20.10;;
81229;SDS011;70701;44.452;18.652;2023-09-19T01:07:55;25.80;;;20.33;;
81229;SDS011;70701;44.452;18.652;2023-09-19T01:10:21;28.02;;;19.33;;
81229;SDS011;70701;44.452;18.652;2023-09-19T01:18:11;27.80;;;19.58;;
81229;SDS011;70701;44.452;18.652;2023-09-19T01:21:08;24.25;;;19.23;;
81229;SDS011;70701;44.452;18.652;2023-09-19T01:26:28;23.38;;;19.50;;
81229;SDS011;70701;44.452;18.652;2023-09-19T01:32:01;23.33;;;18.80;;
81229;SDS011;70701;44.452;18.652;2023-09-19T01:37:18;24.92;;;18.85;;
81229;SDS011;70701;44.452;18.652;2023-09-19T01:40:00;23.65;;;18.98;;
81229;SDS011;70701;44.452;18.652;2023-09-19T01:43:17;24.90;;;17.63;;
81229;SDS011;70701;44.452;18.652;2023-09-19T01:48:35;20.15;;;17.70;;
81229;SDS011;70701;44.452;18.652;2023-09-19T01:51:18;21.38;;;17.35;;
81229;SDS011;70701;44.452;18.652;2023-09-19T01:53:53;22.75;;;18.48;;
81229;SDS011;70701;44.452;18.652;2023-09-19T01:56:28;25.88;;;18.95;;
81229;SDS011;70701;44.452;18.652;2023-09-19T01:59:04;25.30;;;18.73;;
81229;SDS011;70701;44.452;18.652;2023-09-19T02:01:35;24.13;;;18.65;;
81229;SDS011;70701;44.452;18.652;2023-09-19T02:04:03;23.50;;;19.40;;
81229;SDS011;70701;44.452;18.652;2023-09-19T02:06:30;21.48;;;18.10;;
81229;SDS011;70701;44.452;18.652;2023-09-19T02:08:57;22.63;;;18.25;;
81229;SDS011;70701;44.452;18.652;2023-09-19T02:11:23;21.85;;;18.00;;
81229;SDS011;70701;44.452;18.652;2023-09-19T02:13:48;25.15;;;19.08;;
81229;SDS011;70701;44.452;18.652;2023-09-19T02:16:19;23.65;;;20.30;;
81229;SDS011;70701;44.452;18.652;2023-09-19T02:18:47;24.25;;;18.25;;
81229;SDS011;70701;44.452;18.652;2023-09-19T02:21:18;19.30;;;16.27;;
81229;SDS011;70701;44.452;18.652;2023-09-19T02:23:44;20.13;;;15.88;;
81229;SDS011;70701;44.452;18.652;2023-09-19T02:26:12;17.20;;;14.60;;
81229;SDS011;70701;44.452;18.652;2023-09-19T02:28:40;18.25;;;14.23;;
81229;SDS011;70701;44.452;18.652;2023-09-19T02:31:07;15.55;;;13.02;;
81229;SDS011;70701;44.452;18.652;2023-09-19T02:33:33;16.50;;;14.00;;
81229;SDS011;70701;44.452;18.652;2023-09-19T02:36:00;16.27;;;13.15;;
81229;SDS011;70701;44.452;18.652;2023-09-19T02:38:28;17.00;;;12.80;;
81229;SDS011;70701;44.452;18.652;2023-09-19T02:40:54;17.60;;;11.93;;
81229;SDS011;70701;44.452;18.652;2023-09-19T02:43:23;17.55;;;12.65;;
81229;SDS011;70701;44.452;18.652;2023-09-19T02:45:49;18.25;;;13.02;;
81229;SDS011;70701;44.452;18.652;2023-09-19T02:48:16;18.25;;;13.23;;
81229;SDS011;70701;44.452;18.652;2023-09-19T02:50:42;18.10;;;13.32;;
81229;SDS011;70701;44.452;18.652;2023-09-19T02:53:08;15.27;;;12.57;;
81229;SDS011;70701;44.452;18.652;2023-09-19T02:55:35;24.38;;;14.18;;
81229;SDS011;70701;44.452;18.652;2023-09-19T02:58:04;18.50;;;13.40;;
81229;SDS011;70701;44.452;18.652;2023-09-19T03:00:33;17.48;;;14.32;;
81229;SDS011;70701;44.452;18.652;2023-09-19T03:03:01;22.70;;;16.25;;
81229;SDS011;70701;44.452;18.652;2023-09-19T03:05:27;23.42;;;17.63;;
81229;SDS011;70701;44.452;18.652;2023-09-19T03:07:56;21.25;;;17.80;;
81229;SDS011;70701;44.452;18.652;2023-09-19T03:10:22;22.42;;;16.65;;
81229;SDS011;70701;44.452;18.652;2023-09-19T03:12:50;22.77;;;16.98;;
81229;SDS011;70701;44.452;18.652;2023-09-19T03:15:17;22.17;;;16.48;;
81229;SDS011;70701;44.452;18.652;2023-09-19T03:17:45;20.75;;;16.35;;
81229;SDS011;70701;44.452;18.652;2023-09-19T03:20:17;21.27;;;15.70;;
81229;SDS011;70701;44.452;18.652;2023-09-19T03:22:46;20.10;;;14.45;;
81229;SDS011;70701;44.452;18.652;2023-09-19T03:25:11;17.02;;;14.07;;
81229;SDS011;70701;44.452;18.652;2023-09-19T03:27:39;20.23;;;16.05;;
81229;SDS011;70701;44.452;18.652;2023-09-19T03:30:06;17.42;;;15.32;;
81229;SDS011;70701;44.452;18.652;2023-09-19T03:32:35;20.65;;;15.38;;
81229;SDS011;70701;44.452;18.652;2023-09-19T03:35:02;20.77;;;16.70;;
81229;SDS011;70701;44.452;18.652;2023-09-19T03:37:31;22.17;;;17.27;;
81229;SDS011;70701;44.452;18.652;2023-09-19T03:39:57;19.40;;;17.25;;
81229;SDS011;70701;44.452;18.652;2023-09-19T03:42:24;25.02;;;16.83;;
81229;SDS011;70701;44.452;18.652;2023-09-19T03:44:52;21.92;;;16.40;;
81229;SDS011;70701;44.452;18.652;2023-09-19T03:47:20;21.95;;;16.55;;
81229;SDS011;70701;44.452;18.652;2023-09-19T03:49:46;20.73;;;17.17;;
81229;SDS011;70701;44.452;18.652;2023-09-19T03:52:11;20.60;;;17.60;;
81229;SDS011;70701;44.452;18.652;2023-09-19T03:54:37;21.90;;;16.98;;
81229;SDS011;70701;44.452;18.652;2023-09-19T03:57:03;24.67;;;17.38;;
81229;SDS011;70701;44.452;18.652;2023-09-19T03:59:29;22.02;;;17.13;;
81229;SDS011;70701;44.452;18.652;2023-09-19T04:01:54;17.85;;;15.70;;
81229;SDS011;70701;44.452;18.652;2023-09-19T04:04:22;19.23;;;16.02;;
81229;SDS011;70701;44.452;18.652;2023-09-19T04:06:50;20.35;;;15.23;;
81229;SDS011;70701;44.452;18.652;2023-09-19T04:09:16;19.38;;;14.82;;
81229;SDS011;70701;44.452;18.652;2023-09-19T04:11:42;18.52;;;13.43;;
81229;SDS011;70701;44.452;18.652;2023-09-19T04:14:07;20.35;;;16.45;;
81229;SDS011;70701;44.452;18.652;2023-09-19T04:16:33;21.27;;;16.70;;
81229;SDS011;70701;44.452;18.652;2023-09-19T04:18:59;31.80;;;23.58;;
81229;SDS011;70701;44.452;18.652;2023-09-19T04:21:24;25.38;;;19.50;;
81229;SDS011;70701;44.452;18.652;2023-09-19T04:23:50;19.30;;;15.88;;
81229;SDS011;70701;44.452;18.652;2023-09-19T04:26:16;22.95;;;16.80;;
81229;SDS011;70701;44.452;18.652;2023-09-19T04:28:42;23.38;;;16.65;;
81229;SDS011;70701;44.452;18.652;2023-09-19T04:31:09;36.53;;;26.38;;
81229;SDS011;70701;44.452;18.652;2023-09-19T04:33:37;20.15;;;16.27;;
81229;SDS011;70701;44.452;18.652;2023-09-19T04:36:02;24.83;;;16.20;;
81229;SDS011;70701;44.452;18.652;2023-09-19T04:38:30;19.23;;;15.80;;
81229;SDS011;70701;44.452;18.652;2023-09-19T04:40:57;20.00;;;16.25;;
81229;SDS011;70701;44.452;18.652;2023-09-19T04:43:24;21.92;;;16.00;;
81229;SDS011;70701;44.452;18.652;2023-09-19T04:45:50;22.38;;;17.48;;
81229;SDS011;70701;44.452;18.652;2023-09-19T04:48:19;55.85;;;17.67;;
81229;SDS011;70701;44.452;18.652;2023-09-19T04:50:45;25.30;;;16.10;;
81229;SDS011;70701;44.452;18.652;2023-09-19T04:53:10;19.83;;;16.05;;
81229;SDS011;70701;44.452;18.652;2023-09-19T04:55:36;18.23;;;15.23;;
81229;SDS011;70701;44.452;18.652;2023-09-19T04:58:01;20.15;;;16.63;;
81229;SDS011;70701;44.452;18.652;2023-09-19T05:00:27;20.95;;;16.02;;
81229;SDS011;70701;44.452;18.652;2023-09-19T05:02:56;20.33;;;15.95;;
81229;SDS011;70701;44.452;18.652;2023-09-19T05:05:22;23.85;;;16.42;;
81229;SDS011;70701;44.452;18.652;2023-09-19T05:07:49;20.67;;;15.85;;
81229;SDS011;70701;44.452;18.652;2023-09-19T05:10:16;26.15;;;14.60;;
81229;SDS011;70701;44.452;18.652;2023-09-19T05:12:43;25.33;;;15.20;;
81229;SDS011;70701;44.452;18.652;2023-09-19T05:15:11;23.65;;;16.60;;
81229;SDS011;70701;44.452;18.652;2023-09-19T05:17:37;27.92;;;16.40;;
81229;SDS011;70701;44.452;18.652;2023-09-19T05:20:04;28.25;;;17.58;;
81229;SDS011;70701;44.452;18.652;2023-09-19T05:22:39;33.97;;;19.90;;
81229;SDS011;70701;44.452;18.652;2023-09-19T05:25:06;24.85;;;17.70;;
81229;SDS011;70701;44.452;18.652;2023-09-19T05:27:32;24.33;;;16.40;;
81229;SDS011;70701;44.452;18.652;2023-09-19T05:29:59;26.92;;;16.70;;
81229;SDS011;70701;44.452;18.652;2023-09-19T05:32:24;43.85;;;23.63;;
81229;SDS011;70701;44.452;18.652;2023-09-19T05:34:50;18.73;;;14.15;;
81229;SDS011;70701;44.452;18.652;2023-09-19T05:37:19;16.42;;;13.93;;
81229;SDS011;70701;44.452;18.652;2023-09-19T05:39:45;20.80;;;14.43;;
81229;SDS011;70701;44.452;18.652;2023-09-19T05:42:10;18.05;;;15.10;;
81229;SDS011;70701;44.452;18.652;2023-09-19T05:44:36;17.02;;;14.60;;
81229;SDS011;70701;44.452;18.652;2023-09-19T05:47:02;17.58;;;14.98;;
81229;SDS011;70701;44.452;18.652;2023-09-19T05:49:28;16.88;;;15.07;;
81229;SDS011;70701;44.452;18.652;2023-09-19T05:51:54;17.80;;;15.48;;
81229;SDS011;70701;44.452;18.652;2023-09-19T05:54:24;19.38;;;15.65;;
81229;SDS011;70701;44.452;18.652;2023-09-19T05:56:49;21.10;;;16.20;;
81229;SDS011;70701;44.452;18.652;2023-09-19T05:59:18;20.42;;;16.42;;
81229;SDS011;70701;44.452;18.652;2023-09-19T06:01:44;21.73;;;16.58;;
81229;SDS011;70701;44.452;18.652;2023-09-19T06:04:12;21.98;;;16.55;;
81229;SDS011;70701;44.452;18.652;2023-09-19T06:06:38;24.38;;;17.20;;
81229;SDS011;70701;44.452;18.652;2023-09-19T06:09:05;25.60;;;17.20;;
81229;SDS011;70701;44.452;18.652;2023-09-19T06:11:34;22.02;;;17.13;;
81229;SDS011;70701;44.452;18.652;2023-09-19T06:14:00;24.75;;;18.30;;
81229;SDS011;70701;44.452;18.652;2023-09-19T06:16:30;24.35;;;17.65;;
81229;SDS011;70701;44.452;18.652;2023-09-19T06:18:57;25.55;;;20.02;;
81229;SDS011;70701;44.452;18.652;2023-09-19T06:21:25;29.33;;;20.83;;
81229;SDS011;70701;44.452;18.652;2023-09-19T06:23:52;29.70;;;19.63;;
81229;SDS011;70701;44.452;18.652;2023-09-19T06:26:18;26.80;;;18.58;;
81229;SDS011;70701;44.452;18.652;2023-09-19T06:28:43;38.17;;;25.90;;
81229;SDS011;70701;44.452;18.652;2023-09-19T06:31:09;35.38;;;27.15;;
81229;SDS011;70701;44.452;18.652;2023-09-19T06:33:35;28.52;;;22.00;;
81229;SDS011;70701;44.452;18.652;2023-09-19T06:36:05;40.55;;;31.15;;
81229;SDS011;70701;44.452;18.652;2023-09-19T06:38:31;53.35;;;36.38;;
81229;SDS011;70701;44.452;18.652;2023-09-19T06:40:59;39.78;;;29.50;;
81229;SDS011;70701;44.452;18.652;2023-09-19T06:43:26;35.95;;;27.35;;
81229;SDS011;70701;44.452;18.652;2023-09-19T06:45:55;33.92;;;25.10;;
81229;SDS011;70701;44.452;18.652;2023-09-19T06:48:21;26.17;;;18.40;;
81229;SDS011;70701;44.452;18.652;2023-09-19T06:50:46;28.23;;;19.65;;
81229;SDS011;70701;44.452;18.652;2023-09-19T06:53:15;22.52;;;17.48;;
81229;SDS011;70701;44.452;18.652;2023-09-19T06:55:42;24.17;;;19.73;;
81229;SDS011;70701;44.452;18.652;2023-09-19T06:58:09;36.67;;;27.35;;
81229;SDS011;70701;44.452;18.652;2023-09-19T07:00:35;36.42;;;27.23;;
81229;SDS011;70701;44.452;18.652;2023-09-19T07:03:03;25.90;;;20.52;;
81229;SDS011;70701;44.452;18.652;2023-09-19T07:05:33;21.65;;;15.70;;
81229;SDS011;70701;44.452;18.652;2023-09-19T07:08:04;17.13;;;13.00;;
81229;SDS011;70701;44.452;18.652;2023-09-19T07:10:31;19.05;;;12.13;;
81229;SDS011;70701;44.452;18.652;2023-09-19T07:15:38;18.60;;;11.98;;
81229;SDS011;70701;44.452;18.652;2023-09-19T07:18:05;20.65;;;16.17;;
81229;SDS011;70701;44.452;18.652;2023-09-19T07:20:31;18.25;;;12.40;;
81229;SDS011;70701;44.452;18.652;2023-09-19T07:22:58;20.58;;;14.18;;
81229;SDS011;70701;44.452;18.652;2023-09-19T07:25:27;32.47;;;23.17;;
81229;SDS011;70701;44.452;18.652;2023-09-19T07:27:56;20.35;;;13.70;;
81229;SDS011;70701;44.452;18.652;2023-09-19T07:30:25;17.15;;;12.82;;
81229;SDS011;70701;44.452;18.652;2023-09-19T07:32:51;19.50;;;16.05;;
81229;SDS011;70701;44.452;18.652;2023-09-19T07:35:18;21.38;;;14.93;;
81229;SDS011;70701;44.452;18.652;2023-09-19T07:37:48;19.92;;;14.48;;
81229;SDS011;70701;44.452;18.652;2023-09-19T07:40:14;18.83;;;11.52;;
81229;SDS011;70701;44.452;18.652;2023-09-19T07:42:40;15.32;;;10.95;;
81229;SDS011;70701;44.452;18.652;2023-09-19T07:45:07;20.58;;;13.90;;
81229;SDS011;70701;44.452;18.652;2023-09-19T07:47:34;18.30;;;11.98;;
81229;SDS011;70701;44.452;18.652;2023-09-19T07:50:01;17.02;;;11.30;;
81229;SDS011;70701;44.452;18.652;2023-09-19T07:52:28;17.83;;;12.00;;
81229;SDS011;70701;44.452;18.652;2023-09-19T07:54:54;20.30;;;12.90;;
81229;SDS011;70701;44.452;18.652;2023-09-19T07:57:23;20.15;;;11.45;;
81229;SDS011;70701;44.452;18.652;2023-09-19T07:59:48;22.00;;;13.65;;
81229;SDS011;70701;44.452;18.652;2023-09-19T08:02:14;19.15;;;11.63;;
81229;SDS011;70701;44.452;18.652;2023-09-19T08:04:43;19.27;;;10.73;;
81229;SDS011;70701;44.452;18.652;2023-09-19T08:07:11;16.70;;;10.27;;
81229;SDS011;70701;44.452;18.652;2023-09-19T08:09:40;16.00;;;10.85;;
81229;SDS011;70701;44.452;18.652;2023-09-19T08:12:07;21.52;;;11.82;;
81229;SDS011;70701;44.452;18.652;2023-09-19T08:14:35;17.45;;;10.77;;
81229;SDS011;70701;44.452;18.652;2023-09-19T08:17:03;23.20;;;12.75;;
81229;SDS011;70701;44.452;18.652;2023-09-19T08:19:31;16.85;;;11.75;;
81229;SDS011;70701;44.452;18.652;2023-09-19T08:21:57;15.18;;;10.50;;
81229;SDS011;70701;44.452;18.652;2023-09-19T08:24:27;16.50;;;10.55;;
81229;SDS011;70701;44.452;18.652;2023-09-19T08:26:54;17.95;;;11.13;;
81229;SDS011;70701;44.452;18.652;2023-09-19T08:29:21;17.45;;;11.20;;
81229;SDS011;70701;44.452;18.652;2023-09-19T08:31:56;16.65;;;10.10;;
81229;SDS011;70701;44.452;18.652;2023-09-19T08:34:23;30.02;;;14.82;;
81229;SDS011;70701;44.452;18.652;2023-09-19T08:36:52;21.90;;;12.68;;
81229;SDS011;70701;44.452;18.652;2023-09-19T08:39:22;18.00;;;10.13;;
81229;SDS011;70701;44.452;18.652;2023-09-19T08:41:47;20.13;;;10.80;;
81229;SDS011;70701;44.452;18.652;2023-09-19T08:44:14;16.98;;;9.02;;
81229;SDS011;70701;44.452;18.652;2023-09-19T08:46:41;16.90;;;9.82;;
81229;SDS011;70701;44.452;18.652;2023-09-19T08:49:12;32.80;;;22.60;;
81229;SDS011;70701;44.452;18.652;2023-09-19T08:52:10;19.90;;;12.77;;
81229;SDS011;70701;44.452;18.652;2023-09-19T08:54:45;36.20;;;23.35;;
81229;SDS011;70701;44.452;18.652;2023-09-19T08:57:14;19.92;;;12.27;;
81229;SDS011;70701;44.452;18.652;2023-09-19T08:59:47;15.70;;;9.07;;
81229;SDS011;70701;44.452;18.652;2023-09-19T09:02:15;15.48;;;8.93;;
81229;SDS011;70701;44.452;18.652;2023-09-19T09:04:43;15.55;;;9.48;;
81229;SDS011;70701;44.452;18.652;2023-09-19T09:07:10;19.75;;;9.35;;
81229;SDS011;70701;44.452;18.652;2023-09-19T09:09:38;16.85;;;8.73;;
81229;SDS011;70701;44.452;18.652;2023-09-19T09:12:11;18.10;;;9.38;;
81229;SDS011;70701;44.452;18.652;2023-09-19T09:14:45;19.63;;;10.38;;
81229;SDS011;70701;44.452;18.652;2023-09-19T09:17:15;18.77;;;9.00;;
81229;SDS011;70701;44.452;18.652;2023-09-19T09:19:48;21.85;;;9.93;;
81229;SDS011;70701;44.452;18.652;2023-09-19T09:22:14;18.15;;;7.47;;
81229;SDS011;70701;44.452;18.652;2023-09-19T09:24:54;20.83;;;10.05;;
81229;SDS011;70701;44.452;18.652;2023-09-19T09:27:23;19.80;;;7.88;;
81229;SDS011;70701;44.452;18.652;2023-09-19T09:29:50;19.65;;;7.32;;
81229;SDS011;70701;44.452;18.652;2023-09-19T09:32:20;19.40;;;7.53;;
81229;SDS011;70701;44.452;18.652;2023-09-19T09:34:53;19.35;;;8.02;;
81229;SDS011;70701;44.452;18.652;2023-09-19T09:37:20;16.25;;;7.22;;
81229;SDS011;70701;44.452;18.652;2023-09-19T09:42:32;19.27;;;8.25;;
81229;SDS011;70701;44.452;18.652;2023-09-19T09:45:22;22.20;;;6.13;;
81229;SDS011;70701;44.452;18.652;2023-09-19T09:50:24;24.65;;;5.55;;
81229;SDS011;70701;44.452;18.652;2023-09-19T09:58:27;23.00;;;5.07;;
81229;SDS011;70701;44.452;18.652;2023-09-19T10:01:00;19.90;;;5.70;;
81229;SDS011;70701;44.452;18.652;2023-09-19T10:03:39;19.85;;;5.22;;
81229;SDS011;70701;44.452;18.652;2023-09-19T10:06:09;22.73;;;5.28;;
81229;SDS011;70701;44.452;18.652;2023-09-19T10:09:04;23.60;;;5.47;;
81229;SDS011;70701;44.452;18.652;2023-09-19T10:11:47;23.55;;;5.75;;
81229;SDS011;70701;44.452;18.652;2023-09-19T10:14:23;20.60;;;5.25;;
81229;SDS011;70701;44.452;18.652;2023-09-19T10:16:54;20.55;;;5.40;;
81229;SDS011;70701;44.452;18.652;2023-09-19T10:22:12;25.23;;;5.13;;
81229;SDS011;70701;44.452;18.652;2023-09-19T10:24:40;24.08;;;5.22;;
81229;SDS011;70701;44.452;18.652;2023-09-19T10:27:06;25.38;;;5.75;;
81229;SDS011;70701;44.452;18.652;2023-09-19T10:29:34;18.67;;;5.80;;
81229;SDS011;70701;44.452;18.652;2023-09-19T10:32:04;21.60;;;5.00;;
81229;SDS011;70701;44.452;18.652;2023-09-19T10:34:37;19.55;;;5.68;;
81229;SDS011;70701;44.452;18.652;2023-09-19T10:37:06;19.23;;;5.13;;
81229;SDS011;70701;44.452;18.652;2023-09-19T10:39:34;26.48;;;6.35;;
81229;SDS011;70701;44.452;18.652;2023-09-19T10:42:03;23.33;;;5.65;;
81229;SDS011;70701;44.452;18.652;2023-09-19T10:44:34;17.95;;;4.90;;
81229;SDS011;70701;44.452;18.652;2023-09-19T10:47:08;17.92;;;5.15;;
81229;SDS011;70701;44.452;18.652;2023-09-19T10:49:35;19.75;;;4.90;;
81229;SDS011;70701;44.452;18.652;2023-09-19T10:52:00;19.17;;;5.25;;
81229;SDS011;70701;44.452;18.652;2023-09-19T10:54:29;22.58;;;5.45;;
81229;SDS011;70701;44.452;18.652;2023-09-19T10:56:59;21.98;;;4.85;;
81229;SDS011;70701;44.452;18.652;2023-09-19T10:59:25;21.63;;;5.90;;
81229;SDS011;70701;44.452;18.652;2023-09-19T11:02:00;21.77;;;6.10;;
81229;SDS011;70701;44.452;18.652;2023-09-19T11:04:42;26.55;;;6.15;;
81229;SDS011;70701;44.452;18.652;2023-09-19T11:07:11;21.25;;;6.53;;
81229;SDS011;70701;44.452;18.652;2023-09-19T11:14:56;20.45;;;4.90;;
81229;SDS011;70701;44.452;18.652;2023-09-19T11:17:33;18.58;;;6.30;;
81229;SDS011;70701;44.452;18.652;2023-09-19T11:30:33;14.38;;;4.40;;
81229;SDS011;70701;44.452;18.652;2023-09-19T11:51:46;25.35;;;5.43;;
81229;SDS011;70701;44.452;18.652;2023-09-19T11:54:13;22.90;;;5.90;;
81229;SDS011;70701;44.452;18.652;2023-09-19T11:56:43;13.27;;;5.07;;
81229;SDS011;70701;44.452;18.652;2023-09-19T11:59:11;21.38;;;5.97;;
81229;SDS011;70701;44.452;18.652;2023-09-19T12:01:37;17.63;;;5.32;;
81229;SDS011;70701;44.452;18.652;2023-09-19T12:04:08;22.17;;;5.10;;
81229;SDS011;70701;44.452;18.652;2023-09-19T12:06:37;17.83;;;6.10;;
81229;SDS011;70701;44.452;18.652;2023-09-19T12:09:12;22.77;;;6.57;;
81229;SDS011;70701;44.452;18.652;2023-09-19T12:11:42;17.50;;;6.43;;
81229;SDS011;70701;44.452;18.652;2023-09-19T12:14:11;18.52;;;5.82;;
81229;SDS011;70701;44.452;18.652;2023-09-19T12:16:37;16.92;;;6.07;;
81229;SDS011;70701;44.452;18.652;2023-09-19T12:19:19;18.38;;;6.03;;
81229;SDS011;70701;44.452;18.652;2023-09-19T12:22:20;15.88;;;5.47;;
81229;SDS011;70701;44.452;18.652;2023-09-19T12:24:39;20.00;;;8.63;;
81229;SDS011;70701;44.452;18.652;2023-09-19T12:27:09;21.08;;;8.35;;
81229;SDS011;70701;44.452;18.652;2023-09-19T12:29:43;20.13;;;7.60;;
81229;SDS011;70701;44.452;18.652;2023-09-19T12:32:10;24.45;;;10.48;;
81229;SDS011;70701;44.452;18.652;2023-09-19T12:34:36;18.65;;;8.63;;
81229;SDS011;70701;44.452;18.652;2023-09-19T12:37:14;18.65;;;7.43;;
81229;SDS011;70701;44.452;18.652;2023-09-19T12:39:47;21.10;;;6.70;;
81229;SDS011;70701;44.452;18.652;2023-09-19T12:42:24;19.55;;;7.88;;
81229;SDS011;70701;44.452;18.652;2023-09-19T12:45:00;20.42;;;7.70;;
81229;SDS011;70701;44.452;18.652;2023-09-19T12:47:27;29.00;;;18.33;;
81229;SDS011;70701;44.452;18.652;2023-09-19T12:50:13;19.48;;;6.78;;
81229;SDS011;70701;44.452;18.652;2023-09-19T12:52:43;22.33;;;7.63;;
81229;SDS011;70701;44.452;18.652;2023-09-19T12:55:47;15.48;;;6.72;;
81229;SDS011;70701;44.452;18.652;2023-09-19T12:58:14;26.85;;;10.27;;
81229;SDS011;70701;44.452;18.652;2023-09-19T13:00:43;18.53;;;10.17;;
81229;SDS011;70701;44.452;18.652;2023-09-19T13:11:13;22.52;;;8.73;;
81229;SDS011;70701;44.452;18.652;2023-09-19T13:14:14;19.38;;;9.40;;
81229;SDS011;70701;44.452;18.652;2023-09-19T13:16:56;20.50;;;7.80;;
81229;SDS011;70701;44.452;18.652;2023-09-19T13:25:19;20.95;;;10.43;;
81229;SDS011;70701;44.452;18.652;2023-09-19T13:27:50;21.73;;;9.07;;
81229;SDS011;70701;44.452;18.652;2023-09-19T13:30:17;20.95;;;8.63;;
81229;SDS011;70701;44.452;18.652;2023-09-19T13:32:44;15.60;;;7.85;;
81229;SDS011;70701;44.452;18.652;2023-09-19T13:35:12;23.20;;;9.07;;
81229;SDS011;70701;44.452;18.652;2023-09-19T13:37:39;21.85;;;9.23;;
81229;SDS011;70701;44.452;18.652;2023-09-19T13:42:34;25.17;;;9.93;;
81229;SDS011;70701;44.452;18.652;2023-09-19T13:45:02;18.40;;;7.93;;
81229;SDS011;70701;44.452;18.652;2023-09-19T13:47:29;17.90;;;8.63;;
81229;SDS011;70701;44.452;18.652;2023-09-19T13:49:56;18.17;;;8.15;;
81229;SDS011;70701;44.452;18.652;2023-09-19T13:52:22;21.55;;;8.40;;
81229;SDS011;70701;44.452;18.652;2023-09-19T13:54:51;18.48;;;7.53;;
81229;SDS011;70701;44.452;18.652;2023-09-19T13:57:18;18.20;;;8.10;;
81229;SDS011;70701;44.452;18.652;2023-09-19T13:59:44;18.58;;;7.70;;
81229;SDS011;70701;44.452;18.652;2023-09-19T14:02:09;18.48;;;8.10;;
81229;SDS011;70701;44.452;18.652;2023-09-19T14:04:35;20.38;;;6.70;;
81229;SDS011;70701;44.452;18.652;2023-09-19T14:07:01;19.35;;;8.50;;
81229;SDS011;70701;44.452;18.652;2023-09-19T14:09:27;22.20;;;7.47;;
81229;SDS011;70701;44.452;18.652;2023-09-19T14:11:53;16.77;;;7.28;;
81229;SDS011;70701;44.452;18.652;2023-09-19T14:14:19;16.63;;;7.10;;
81229;SDS011;70701;44.452;18.652;2023-09-19T14:16:46;20.13;;;7.03;;
81229;SDS011;70701;44.452;18.652;2023-09-19T14:19:12;15.02;;;7.82;;
81229;SDS011;70701;44.452;18.652;2023-09-19T14:21:39;20.02;;;7.20;;
81229;SDS011;70701;44.452;18.652;2023-09-19T14:24:04;16.85;;;7.00;;
81229;SDS011;70701;44.452;18.652;2023-09-19T14:26:37;17.83;;;7.57;;
81229;SDS011;70701;44.452;18.652;2023-09-19T14:29:06;21.60;;;8.30;;
81229;SDS011;70701;44.452;18.652;2023-09-19T14:31:39;17.48;;;7.43;;
81229;SDS011;70701;44.452;18.652;2023-09-19T14:34:08;14.57;;;7.65;;
81229;SDS011;70701;44.452;18.652;2023-09-19T14:36:37;18.08;;;7.13;;
81229;SDS011;70701;44.452;18.652;2023-09-19T14:39:04;16.95;;;7.03;;
81229;SDS011;70701;44.452;18.652;2023-09-19T14:41:30;20.95;;;7.00;;
81229;SDS011;70701;44.452;18.652;2023-09-19T14:43:56;19.27;;;8.18;;
81229;SDS011;70701;44.452;18.652;2023-09-19T14:46:22;18.90;;;7.13;;
81229;SDS011;70701;44.452;18.652;2023-09-19T14:48:50;24.15;;;11.10;;
81229;SDS011;70701;44.452;18.652;2023-09-19T14:51:17;19.60;;;7.93;;
81229;SDS011;70701;44.452;18.652;2023-09-19T14:53:44;14.02;;;6.75;;
81229;SDS011;70701;44.452;18.652;2023-09-19T14:56:10;19.90;;;8.48;;
81229;SDS011;70701;44.452;18.652;2023-09-19T14:58:36;19.83;;;8.82;;
81229;SDS011;70701;44.452;18.652;2023-09-19T15:01:05;13.50;;;7.85;;
81229;SDS011;70701;44.452;18.652;2023-09-19T15:03:32;20.02;;;7.75;;
81229;SDS011;70701;44.452;18.652;2023-09-19T15:05:59;18.20;;;7.10;;
81229;SDS011;70701;44.452;18.652;2023-09-19T15:08:30;21.77;;;7.63;;
81229;SDS011;70701;44.452;18.652;2023-09-19T15:10:57;17.23;;;7.68;;
81229;SDS011;70701;44.452;18.652;2023-09-19T15:13:24;18.38;;;7.32;;
81229;SDS011;70701;44.452;18.652;2023-09-19T15:16:00;22.65;;;7.45;;
81229;SDS011;70701;44.452;18.652;2023-09-19T15:18:27;19.80;;;7.60;;
81229;SDS011;70701;44.452;18.652;2023-09-19T15:20:55;25.08;;;9.15;;
81229;SDS011;70701;44.452;18.652;2023-09-19T15:23:20;17.63;;;7.43;;
81229;SDS011;70701;44.452;18.652;2023-09-19T15:25:49;16.75;;;7.82;;
81229;SDS011;70701;44.452;18.652;2023-09-19T15:28:15;19.98;;;8.80;;
81229;SDS011;70701;44.452;18.652;2023-09-19T15:30:40;17.77;;;8.18;;
81229;SDS011;70701;44.452;18.652;2023-09-19T15:33:06;21.00;;;8.63;;
81229;SDS011;70701;44.452;18.652;2023-09-19T15:35:32;21.90;;;7.65;;
81229;SDS011;70701;44.452;18.652;2023-09-19T15:37:57;22.17;;;8.85;;
81229;SDS011;70701;44.452;18.652;2023-09-19T15:40:26;19.98;;;7.72;;
81229;SDS011;70701;44.452;18.652;2023-09-19T15:42:53;18.35;;;8.30;;
81229;SDS011;70701;44.452;18.652;2023-09-19T15:45:19;18.23;;;8.68;;
81229;SDS011;70701;44.452;18.652;2023-09-19T15:47:45;22.58;;;10.07;;